Time;durP1;ratioP1;P1;durP2;ratioP2;P2;SDS_P1;SDS_P2;PMS_P1;PMS_P2;Temp;Humidity;BMP_temperature;BMP_pressure;BME280_temperature;BME280_humidity;BME280_pressure;Samples;Min_cycle;Max_cycle;Signal;HPM_P1;HPM_P2
2024/02/18 00:00:09;;;;;;;14.10;6.83;;;;;;;;;;5038072;28;20485;-82
2024/02/18 00:02:35;;;;;;;13.57;6.00;;;;;;;;;;5055668;28;20434;-79
2024/02/18 00:05:05;;;;;;;14.47;6.97;;;;;;;;;;5055637;28;20811;-82
2024/02/18 00:07:31;;;;;;;16.17;7.20;;;;;;;;;;5055791;28;20498;-80
2024/02/18 00:09:57;;;;;;;13.83;7.20;;;;;;;;;;5055166;28;20557;-88
2024/02/18 00:12:24;;;;;;;14.03;8.83;;;;;;;;;;5055450;28;20728;-79
2024/02/18 00:14:51;;;;;;;17.50;6.73;;;;;;;;;;5055367;28;20421;-78
2024/02/18 00:17:17;;;;;;;17.30;8.50;;;;;;;;;;5054550;28;20754;-78
2024/02/18 00:19:42;;;;;;;13.97;8.50;;;;;;;;;;5037335;28;20427;-79
2024/02/18 00:22:09;;;;;;;16.87;7.23;;;;;;;;;;5037160;28;20411;-78
2024/02/18 00:24:36;;;;;;;20.90;7.30;;;;;;;;;;5054907;28;20415;-80
2024/02/18 00:27:03;;;;;;;16.10;7.30;;;;;;;;;;5055124;28;20404;-81
2024/02/18 00:29:29;;;;;;;10.90;7.57;;;;;;;;;;5055029;28;20567;-79
2024/02/18 00:31:55;;;;;;;21.80;10.67;;;;;;;;;;5037410;28;20527;-80
2024/02/18 00:34:24;;;;;;;14.67;7.43;;;;;;;;;;5054980;28;20494;-79
2024/02/18 00:36:52;;;;;;;15.80;7.70;;;;;;;;;;5055048;28;20809;-79
2024/02/18 00:39:18;;;;;;;14.40;8.43;;;;;;;;;;5054975;28;20870;-82
2024/02/18 00:41:44;;;;;;;12.63;7.27;;;;;;;;;;5054876;28;20441;-78
2024/02/18 00:44:10;;;;;;;18.80;7.43;;;;;;;;;;5054903;28;20765;-78
2024/02/18 00:46:36;;;;;;;14.83;7.90;;;;;;;;;;5037091;28;20426;-88
2024/02/18 00:49:02;;;;;;;18.93;7.93;;;;;;;;;;5037676;28;20489;-79
2024/02/18 00:51:28;;;;;;;12.47;6.93;;;;;;;;;;5054686;28;20444;-79
2024/02/18 00:53:54;;;;;;;20.20;9.67;;;;;;;;;;5055247;28;20481;-83
2024/02/18 00:56:20;;;;;;;11.10;5.33;;;;;;;;;;5054605;28;20414;-80
2024/02/18 00:58:48;;;;;;;19.63;7.37;;;;;;;;;;5054788;28;20418;-87
2024/02/18 01:01:14;;;;;;;12.57;6.87;;;;;;;;;;5054707;28;20779;-78
2024/02/18 01:03:39;;;;;;;26.00;7.90;;;;;;;;;;5054614;28;20444;-81
2024/02/18 01:06:05;;;;;;;12.10;6.77;;;;;;;;;;5054481;28;20410;-85
2024/02/18 01:08:31;;;;;;;11.07;6.67;;;;;;;;;;5054472;28;20419;-85
2024/02/18 01:10:57;;;;;;;12.53;5.03;;;;;;;;;;5054131;28;20438;-79
2024/02/18 01:13:23;;;;;;;15.17;6.90;;;;;;;;;;5054640;28;20425;-77
2024/02/18 01:15:49;;;;;;;16.40;7.50;;;;;;;;;;5054383;28;20416;-84
2024/02/18 01:18:15;;;;;;;11.40;6.27;;;;;;;;;;5036759;28;20773;-82
2024/02/18 01:20:41;;;;;;;15.40;6.70;;;;;;;;;;5054439;28;20408;-79
2024/02/18 01:23:07;;;;;;;10.97;5.70;;;;;;;;;;5054791;28;20404;-87
2024/02/18 01:25:33;;;;;;;18.33;6.37;;;;;;;;;;5054245;28;20412;-79
2024/02/18 01:27:59;;;;;;;12.30;4.77;;;;;;;;;;5053515;28;20455;-88
2024/02/18 01:30:25;;;;;;;13.80;6.00;;;;;;;;;;5054083;28;20561;-78
2024/02/18 01:32:51;;;;;;;7.47;3.67;;;;;;;;;;5054032;28;20889;-79
2024/02/18 01:35:17;;;;;;;14.40;5.27;;;;;;;;;;5035955;28;20471;-79
2024/02/18 01:37:42;;;;;;;14.00;6.37;;;;;;;;;;5036080;28;20404;-79
2024/02/18 01:40:09;;;;;;;14.73;7.60;;;;;;;;;;5035590;28;20420;-78
2024/02/18 01:42:36;;;;;;;13.60;3.83;;;;;;;;;;5053774;28;20415;-78
2024/02/18 01:45:02;;;;;;;11.27;5.37;;;;;;;;;;5053739;28;20408;-78
2024/02/18 01:47:28;;;;;;;10.27;4.77;;;;;;;;;;5053697;28;20418;-80
2024/02/18 01:49:54;;;;;;;13.80;4.20;;;;;;;;;;5053577;28;20475;-79
2024/02/18 01:52:24;;;;;;;14.60;4.57;;;;;;;;;;5053706;28;20404;-79
2024/02/18 01:54:50;;;;;;;7.30;3.60;;;;;;;;;;5053250;28;20416;-85
2024/02/18 01:57:19;;;;;;;12.93;4.57;;;;;;;;;;5053457;28;20408;-78
2024/02/18 01:59:45;;;;;;;11.77;4.43;;;;;;;;;;5053515;28;20420;-78
2024/02/18 02:02:11;;;;;;;12.13;3.50;;;;;;;;;;5052239;28;20419;-84
2024/02/18 02:04:36;;;;;;;10.57;4.93;;;;;;;;;;5052201;28;20842;-84
2024/02/18 02:07:03;;;;;;;12.03;3.53;;;;;;;;;;5053474;28;20412;-79
2024/02/18 02:09:29;;;;;;;11.60;3.30;;;;;;;;;;5052911;28;20469;-78
2024/02/18 02:11:55;;;;;;;11.60;3.10;;;;;;;;;;5053140;28;20823;-83
2024/02/18 02:14:21;;;;;;;13.70;4.70;;;;;;;;;;5053225;28;20411;-86
2024/02/18 02:16:47;;;;;;;8.10;3.47;;;;;;;;;;5053108;28;20482;-78
2024/02/18 02:19:16;;;;;;;11.70;2.87;;;;;;;;;;5053076;28;20408;-78
2024/02/18 02:21:42;;;;;;;12.20;4.43;;;;;;;;;;5052972;28;20499;-78
2024/02/18 02:24:08;;;;;;;12.13;4.33;;;;;;;;;;5053023;28;20475;-80
2024/02/18 02:26:36;;;;;;;7.70;3.80;;;;;;;;;;5051404;28;20426;-79
2024/02/18 02:29:11;;;;;;;15.60;4.90;;;;;;;;;;5051563;28;20814;-79
2024/02/18 02:31:37;;;;;;;15.03;3.20;;;;;;;;;;5053030;28;20408;-79
2024/02/18 02:34:03;;;;;;;10.10;2.93;;;;;;;;;;5051341;28;20466;-79
2024/02/18 02:36:30;;;;;;;12.17;3.87;;;;;;;;;;5052976;28;20418;-78
2024/02/18 02:38:56;;;;;;;6.73;2.97;;;;;;;;;;5051203;28;20417;-78
2024/02/18 02:41:22;;;;;;;10.60;3.00;;;;;;;;;;5052439;28;20409;-79
2024/02/18 02:43:48;;;;;;;8.43;3.50;;;;;;;;;;5051504;28;20768;-80
2024/02/18 02:46:14;;;;;;;17.60;2.90;;;;;;;;;;5052667;28;20408;-78
2024/02/18 02:48:43;;;;;;;13.03;3.93;;;;;;;;;;5052575;28;20416;-79
2024/02/18 02:51:09;;;;;;;10.43;3.70;;;;;;;;;;5052714;28;20512;-79
2024/02/18 02:53:35;;;;;;;11.03;3.50;;;;;;;;;;5052570;28;20503;-79
2024/02/18 02:56:01;;;;;;;14.60;4.30;;;;;;;;;;5052301;28;20492;-80
2024/02/18 02:58:26;;;;;;;8.23;3.50;;;;;;;;;;5051346;28;20412;-79
2024/02/18 03:00:52;;;;;;;7.33;2.70;;;;;;;;;;5052494;28;20408;-79
2024/02/18 03:03:18;;;;;;;12.03;2.63;;;;;;;;;;5052500;28;20406;-79
2024/02/18 03:05:44;;;;;;;13.60;3.70;;;;;;;;;;5052533;28;20947;-79
2024/02/18 03:08:10;;;;;;;6.57;2.87;;;;;;;;;;5052581;28;20511;-78
2024/02/18 03:10:37;;;;;;;12.63;3.93;;;;;;;;;;5050827;28;20605;-80
2024/02/18 03:13:03;;;;;;;12.17;3.20;;;;;;;;;;5052464;28;20406;-79
2024/02/18 03:15:29;;;;;;;7.03;2.73;;;;;;;;;;5052490;28;20495;-78
2024/02/18 03:17:56;;;;;;;7.70;2.80;;;;;;;;;;5052510;28;20906;-79
2024/02/18 03:20:22;;;;;;;13.40;3.60;;;;;;;;;;5052462;28;20422;-78
2024/02/18 03:22:49;;;;;;;8.80;2.90;;;;;;;;;;5052413;28;20411;-78
2024/02/18 03:25:15;;;;;;;6.40;3.00;;;;;;;;;;5050821;28;20887;-78
2024/02/18 03:27:42;;;;;;;11.50;2.60;;;;;;;;;;5051109;28;20422;-83
2024/02/18 03:30:11;;;;;;;11.30;3.43;;;;;;;;;;5051195;28;20537;-79
2024/02/18 03:32:37;;;;;;;10.67;4.20;;;;;;;;;;5051025;28;20426;-78
2024/02/18 03:35:06;;;;;;;7.70;5.00;;;;;;;;;;5050746;28;20493;-79
2024/02/18 03:37:33;;;;;;;12.40;3.00;;;;;;;;;;5052192;28;20412;-79
2024/02/18 03:39:59;;;;;;;14.30;2.93;;;;;;;;;;5051824;28;20414;-78
2024/02/18 03:42:24;;;;;;;13.63;4.10;;;;;;;;;;5052234;28;20902;-78
2024/02/18 03:44:50;;;;;;;9.80;2.13;;;;;;;;;;5052065;28;20475;-79
2024/02/18 03:47:16;;;;;;;9.00;3.00;;;;;;;;;;5052130;28;20404;-80
2024/02/18 03:49:42;;;;;;;11.03;3.10;;;;;;;;;;5050944;28;20621;-79
2024/02/18 03:52:08;;;;;;;14.00;3.80;;;;;;;;;;5054458;28;20412;-79
2024/02/18 03:54:34;;;;;;;9.97;3.30;;;;;;;;;;5055467;28;20442;-78
2024/02/18 03:57:00;;;;;;;10.90;2.60;;;;;;;;;;5054456;28;21046;-78
2024/02/18 03:59:26;;;;;;;9.57;2.40;;;;;;;;;;5055818;28;21043;-81
2024/02/18 04:01:52;;;;;;;15.40;4.27;;;;;;;;;;5055710;28;20440;-79
2024/02/18 04:04:21;;;;;;;14.77;4.30;;;;;;;;;;5055673;28;20471;-78
2024/02/18 04:06:47;;;;;;;13.60;4.73;;;;;;;;;;5054292;28;20776;-78
2024/02/18 04:09:13;;;;;;;8.50;2.80;;;;;;;;;;5053796;28;20555;-78
2024/02/18 04:11:39;;;;;;;10.07;3.33;;;;;;;;;;5055400;28;20516;-78
2024/02/18 04:14:05;;;;;;;10.20;2.90;;;;;;;;;;5054230;28;20404;-78
2024/02/18 04:16:31;;;;;;;7.40;3.70;;;;;;;;;;5055375;28;20471;-80
2024/02/18 04:18:57;;;;;;;9.93;3.10;;;;;;;;;;5055402;28;20817;-79
2024/02/18 04:21:23;;;;;;;9.90;2.97;;;;;;;;;;5055415;28;20409;-78
2024/02/18 04:23:52;;;;;;;7.10;1.37;;;;;;;;;;5055207;28;20945;-78
2024/02/18 04:26:18;;;;;;;9.70;3.10;;;;;;;;;;5055285;28;20417;-78
2024/02/18 04:28:44;;;;;;;5.80;2.67;;;;;;;;;;5055080;28;20411;-78
2024/02/18 04:31:10;;;;;;;7.73;3.03;;;;;;;;;;5055192;28;20772;-78
2024/02/18 04:33:36;;;;;;;12.07;3.60;;;;;;;;;;5054945;28;20487;-81
2024/02/18 04:36:03;;;;;;;7.23;2.57;;;;;;;;;;5054975;28;20473;-81
2024/02/18 04:38:29;;;;;;;12.13;4.07;;;;;;;;;;5055047;28;20816;-78
2024/02/18 04:40:54;;;;;;;12.30;3.90;;;;;;;;;;5054550;28;20447;-79
2024/02/18 04:43:20;;;;;;;6.57;2.33;;;;;;;;;;5054867;28;20550;-81
2024/02/18 04:45:47;;;;;;;7.07;3.40;;;;;;;;;;5054813;28;20817;-78
2024/02/18 04:48:12;;;;;;;10.47;3.67;;;;;;;;;;5054769;28;20414;-81
2024/02/18 04:50:38;;;;;;;10.87;3.40;;;;;;;;;;5054568;28;20836;-79
2024/02/18 04:53:04;;;;;;;6.10;2.67;;;;;;;;;;5054643;28;20886;-78
2024/02/18 04:55:31;;;;;;;8.20;2.80;;;;;;;;;;5053070;28;20428;-79
2024/02/18 04:57:57;;;;;;;6.67;2.70;;;;;;;;;;5054633;28;20413;-78
2024/02/18 05:00:23;;;;;;;9.67;3.83;;;;;;;;;;5054569;28;20414;-78
2024/02/18 05:02:49;;;;;;;7.63;2.90;;;;;;;;;;5053011;28;20809;-79
2024/02/18 05:05:15;;;;;;;8.77;3.60;;;;;;;;;;5054448;28;20447;-79
2024/02/18 05:07:41;;;;;;;7.97;3.30;;;;;;;;;;5054463;28;20951;-79
2024/02/18 05:10:07;;;;;;;7.63;3.03;;;;;;;;;;5053936;28;20872;-78
2024/02/18 05:12:33;;;;;;;20.07;3.63;;;;;;;;;;5053114;28;20420;-84
2024/02/18 05:14:59;;;;;;;8.10;3.67;;;;;;;;;;5054235;28;20424;-79
2024/02/18 05:17:25;;;;;;;11.43;4.80;;;;;;;;;;5054248;28;20408;-78
2024/02/18 05:19:51;;;;;;;11.60;3.63;;;;;;;;;;5054186;28;20416;-79
2024/02/18 05:22:18;;;;;;;8.30;2.83;;;;;;;;;;5052953;28;20416;-83
2024/02/18 05:24:45;;;;;;;10.50;3.67;;;;;;;;;;5053780;28;20981;-79
2024/02/18 05:27:11;;;;;;;10.70;3.53;;;;;;;;;;5054044;28;20907;-81
2024/02/18 05:29:37;;;;;;;17.70;5.10;;;;;;;;;;5052745;28;20482;-79
2024/02/18 05:32:04;;;;;;;13.50;4.77;;;;;;;;;;5053930;28;20744;-79
2024/02/18 05:34:30;;;;;;;11.60;4.10;;;;;;;;;;5053611;28;20468;-79
2024/02/18 05:36:56;;;;;;;9.10;4.87;;;;;;;;;;5053949;28;20969;-80
2024/02/18 05:39:21;;;;;;;8.40;3.93;;;;;;;;;;5053391;28;20954;-78
2024/02/18 05:41:47;;;;;;;9.47;3.50;;;;;;;;;;5052543;28;20417;-78
2024/02/18 05:44:13;;;;;;;11.30;4.70;;;;;;;;;;5053563;28;20412;-78
2024/02/18 05:46:39;;;;;;;11.43;4.10;;;;;;;;;;5053628;28;20405;-77
2024/02/18 05:49:05;;;;;;;17.73;4.57;;;;;;;;;;5053458;28;20456;-77
2024/02/18 05:51:34;;;;;;;9.90;4.00;;;;;;;;;;5053462;28;20814;-76
2024/02/18 05:54:00;;;;;;;15.90;4.60;;;;;;;;;;5051859;28;20446;-77
2024/02/18 05:56:26;;;;;;;6.87;3.50;;;;;;;;;;5053472;28;20418;-84
2024/02/18 05:58:52;;;;;;;11.40;3.50;;;;;;;;;;5053402;28;20412;-79
2024/02/18 06:01:18;;;;;;;9.03;4.60;;;;;;;;;;5053325;28;20523;-77
2024/02/18 06:03:44;;;;;;;12.00;4.87;;;;;;;;;;5053430;28;20550;-76
2024/02/18 06:06:09;;;;;;;8.70;4.90;;;;;;;;;;5051976;28;20948;-77
2024/02/18 06:08:35;;;;;;;10.90;3.23;;;;;;;;;;5052818;28;20418;-76
2024/02/18 06:11:02;;;;;;;16.97;4.80;;;;;;;;;;5053239;28;20421;-81
2024/02/18 06:13:28;;;;;;;9.80;4.53;;;;;;;;;;5052948;28;20830;-77
2024/02/18 06:15:54;;;;;;;12.43;4.10;;;;;;;;;;5052979;28;20498;-76
2024/02/18 06:18:20;;;;;;;10.13;3.50;;;;;;;;;;5053079;28;20493;-76
2024/02/18 06:20:46;;;;;;;13.23;4.27;;;;;;;;;;5053040;28;20892;-76
2024/02/18 06:23:12;;;;;;;8.73;4.43;;;;;;;;;;5053054;28;20408;-76
2024/02/18 06:25:38;;;;;;;10.47;4.23;;;;;;;;;;5052673;28;20801;-76
2024/02/18 06:28:11;;;;;;;15.70;5.77;;;;;;;;;;5053012;28;20408;-79
2024/02/18 06:30:38;;;;;;;12.50;5.77;;;;;;;;;;5052777;28;20525;-76
2024/02/18 06:33:04;;;;;;;12.67;3.77;;;;;;;;;;5052973;28;20419;-78
2024/02/18 06:35:30;;;;;;;11.03;5.70;;;;;;;;;;5052751;28;20924;-76
2024/02/18 06:37:56;;;;;;;10.10;4.40;;;;;;;;;;5052835;28;20449;-77
2024/02/18 06:40:22;;;;;;;10.43;4.53;;;;;;;;;;5051230;28;20815;-79
2024/02/18 06:42:48;;;;;;;13.07;5.30;;;;;;;;;;5051394;28;20886;-79
2024/02/18 06:45:14;;;;;;;12.63;4.63;;;;;;;;;;5052716;28;20495;-79
2024/02/18 06:47:40;;;;;;;11.80;4.30;;;;;;;;;;5051448;28;20939;-80
2024/02/18 06:50:06;;;;;;;14.40;6.50;;;;;;;;;;5051319;28;20467;-80
2024/02/18 06:52:32;;;;;;;14.53;6.13;;;;;;;;;;5052617;28;20789;-79
2024/02/18 06:54:58;;;;;;;17.30;7.47;;;;;;;;;;5052329;28;20416;-82
2024/02/18 06:57:24;;;;;;;11.87;6.03;;;;;;;;;;5052661;28;20452;-82
2024/02/18 06:59:50;;;;;;;11.27;5.43;;;;;;;;;;5052797;28;20471;-83
2024/02/18 07:02:16;;;;;;;13.13;7.10;;;;;;;;;;5052641;28;20449;-84
2024/02/18 07:05:00;;;;;;;15.20;5.80;;;;;;;;;;5052756;28;20427;-88
2024/02/18 07:07:27;;;;;;;9.47;5.03;;;;;;;;;;5053184;28;20754;-85
2024/02/18 07:09:53;;;;;;;16.07;5.60;;;;;;;;;;5052982;28;20530;-86
2024/02/18 07:12:19;;;;;;;15.47;6.47;;;;;;;;;;5053642;28;20413;-84
2024/02/18 07:14:45;;;;;;;11.37;5.43;;;;;;;;;;5053108;28;20417;-87
2024/02/18 07:17:12;;;;;;;9.80;4.27;;;;;;;;;;5052940;28;20412;-86
2024/02/18 07:19:38;;;;;;;18.40;8.70;;;;;;;;;;5052481;28;20430;-84
2024/02/18 07:22:06;;;;;;;13.60;5.37;;;;;;;;;;5041766;28;20414;-87
2024/02/18 07:24:32;;;;;;;16.23;6.80;;;;;;;;;;5044045;28;20442;-85
2024/02/18 07:26:58;;;;;;;13.10;6.03;;;;;;;;;;5045875;28;20412;-86
2024/02/18 07:29:25;;;;;;;11.63;6.80;;;;;;;;;;5048355;28;20469;-85
2024/02/18 07:31:51;;;;;;;14.60;6.67;;;;;;;;;;5035450;28;20409;-82
2024/02/18 07:34:17;;;;;;;11.50;6.80;;;;;;;;;;5036286;28;20456;-83
2024/02/18 07:36:43;;;;;;;15.70;7.33;;;;;;;;;;5037145;28;20422;-88
2024/02/18 07:39:10;;;;;;;11.60;6.10;;;;;;;;;;5036682;28;20420;-85
2024/02/18 07:41:36;;;;;;;13.27;7.37;;;;;;;;;;5037806;28;20409;-88
2024/02/18 07:44:03;;;;;;;12.07;6.57;;;;;;;;;;5036351;28;20446;-86
2024/02/18 07:46:29;;;;;;;12.67;6.87;;;;;;;;;;5035566;28;20421;-83
2024/02/18 07:48:56;;;;;;;13.73;7.07;;;;;;;;;;5036038;28;20503;-84
2024/02/18 07:51:22;;;;;;;13.33;7.60;;;;;;;;;;5034434;28;20452;-85
2024/02/18 07:53:48;;;;;;;19.10;8.30;;;;;;;;;;5036225;28;20410;-83
2024/02/18 07:56:14;;;;;;;11.10;5.90;;;;;;;;;;5036391;28;20445;-83
2024/02/18 07:58:40;;;;;;;16.47;7.43;;;;;;;;;;5034746;28;20410;-86
2024/02/18 08:01:06;;;;;;;12.43;8.07;;;;;;;;;;5036180;28;20421;-85
2024/02/18 08:03:33;;;;;;;17.73;8.03;;;;;;;;;;5035949;28;20403;-81
2024/02/18 08:05:59;;;;;;;19.60;7.60;;;;;;;;;;5035915;28;20463;-80
2024/02/18 08:08:25;;;;;;;17.20;9.10;;;;;;;;;;5034874;28;20402;-84
2024/02/18 08:10:52;;;;;;;17.67;9.87;;;;;;;;;;5035281;28;21145;-80
2024/02/18 08:13:18;;;;;;;17.57;8.20;;;;;;;;;;5034553;28;20410;-84
2024/02/18 08:15:44;;;;;;;18.13;9.17;;;;;;;;;;5035912;28;20424;-81
2024/02/18 08:18:10;;;;;;;23.80;12.57;;;;;;;;;;5035744;28;20405;-81
2024/02/18 08:20:37;;;;;;;20.63;10.07;;;;;;;;;;5037257;28;20414;-83
2024/02/18 08:23:03;;;;;;;20.97;9.23;;;;;;;;;;5038090;28;20423;-84
2024/02/18 08:25:29;;;;;;;21.10;11.27;;;;;;;;;;5018600;28;20404;-83
2024/02/18 08:27:56;;;;;;;20.33;11.07;;;;;;;;;;5036150;28;20416;-84
2024/02/18 08:30:22;;;;;;;20.50;11.57;;;;;;;;;;5034806;28;20476;-79
2024/02/18 08:32:47;;;;;;;19.57;11.33;;;;;;;;;;5047646;28;20488;-81
2024/02/18 08:35:14;;;;;;;20.00;11.70;;;;;;;;;;5054965;28;20464;-82
2024/02/18 08:37:40;;;;;;;16.90;10.00;;;;;;;;;;5053625;28;20748;-80
2024/02/18 08:40:09;;;;;;;18.97;10.67;;;;;;;;;;5040858;28;20824;-80
2024/02/18 08:42:35;;;;;;;17.27;10.90;;;;;;;;;;5035606;28;20442;-83
2024/02/18 08:45:02;;;;;;;19.10;9.67;;;;;;;;;;5036423;28;20849;-86
2024/02/18 08:47:28;;;;;;;19.70;10.70;;;;;;;;;;5036692;28;20409;-92
2024/02/18 08:49:54;;;;;;;16.07;9.70;;;;;;;;;;5039412;28;20499;-89
2024/02/18 08:52:20;;;;;;;22.97;11.47;;;;;;;;;;5021849;28;20435;-93
2024/02/18 08:54:46;;;;;;;24.57;10.70;;;;;;;;;;5056049;28;20483;-93
2024/02/18 08:57:12;;;;;;;20.50;11.80;;;;;;;;;;5054863;28;20471;-80
2024/02/18 08:59:38;;;;;;;20.00;11.27;;;;;;;;;;5054735;28;20926;-81
2024/02/18 09:02:04;;;;;;;23.00;10.87;;;;;;;;;;5054848;28;20409;-88
2024/02/18 09:04:30;;;;;;;16.27;8.40;;;;;;;;;;5054170;28;20842;-85
2024/02/18 09:06:56;;;;;;;17.33;9.83;;;;;;;;;;5054521;28;20410;-78
2024/02/18 09:09:22;;;;;;;22.40;11.37;;;;;;;;;;5053632;28;21036;-77
2024/02/18 09:11:48;;;;;;;19.20;10.97;;;;;;;;;;5053743;28;20410;-77
2024/02/18 09:14:13;;;;;;;24.73;14.53;;;;;;;;;;5053922;28;20418;-80
2024/02/18 09:16:39;;;;;;;22.10;12.53;;;;;;;;;;5054119;28;20413;-79
2024/02/18 09:19:08;;;;;;;24.13;13.30;;;;;;;;;;5053565;28;20430;-77
2024/02/18 09:21:34;;;;;;;19.50;13.53;;;;;;;;;;5054168;28;20863;-78
2024/02/18 09:24:03;;;;;;;25.00;12.40;;;;;;;;;;5036109;28;20451;-77
2024/02/18 09:26:29;;;;;;;22.43;13.50;;;;;;;;;;5054149;28;20444;-79
2024/02/18 09:28:55;;;;;;;21.07;12.50;;;;;;;;;;5036235;28;20430;-78
2024/02/18 09:31:21;;;;;;;24.73;14.97;;;;;;;;;;5054011;28;20998;-80
2024/02/18 09:33:47;;;;;;;22.63;13.60;;;;;;;;;;5053007;28;20788;-78
2024/02/18 09:36:13;;;;;;;26.87;14.83;;;;;;;;;;5054002;28;20427;-78
2024/02/18 09:38:39;;;;;;;26.67;15.37;;;;;;;;;;5053464;28;20412;-79
2024/02/18 09:41:06;;;;;;;28.43;13.37;;;;;;;;;;5053550;28;20418;-80
2024/02/18 09:43:41;;;;;;;26.13;14.47;;;;;;;;;;5053828;28;20460;-79
2024/02/18 09:46:08;;;;;;;23.10;12.70;;;;;;;;;;5051854;28;20440;-78
2024/02/18 09:48:39;;;;;;;31.70;14.00;;;;;;;;;;5052610;28;20411;-79
2024/02/18 09:51:05;;;;;;;21.43;12.80;;;;;;;;;;5053494;28;20540;-79
2024/02/18 09:53:33;;;;;;;27.70;13.40;;;;;;;;;;5052941;28;20425;-78
2024/02/18 09:56:02;;;;;;;25.13;13.93;;;;;;;;;;5053593;28;20839;-79
2024/02/18 09:58:29;;;;;;;20.80;12.70;;;;;;;;;;5053349;28;20408;-78
2024/02/18 10:00:55;;;;;;;24.40;13.10;;;;;;;;;;5053484;28;20461;-80
2024/02/18 10:03:21;;;;;;;20.67;12.43;;;;;;;;;;5052212;28;20882;-80
2024/02/18 10:05:47;;;;;;;30.43;14.67;;;;;;;;;;5052975;28;20412;-79
2024/02/18 10:08:13;;;;;;;23.57;12.13;;;;;;;;;;5051484;28;20469;-83
2024/02/18 10:10:39;;;;;;;21.83;13.80;;;;;;;;;;5035104;28;20570;-84
2024/02/18 10:13:08;;;;;;;20.70;13.57;;;;;;;;;;5034687;28;20408;-79
2024/02/18 10:15:34;;;;;;;19.23;12.73;;;;;;;;;;5034323;28;20428;-79
2024/02/18 10:18:01;;;;;;;23.40;13.20;;;;;;;;;;5053114;28;20416;-80
2024/02/18 10:20:28;;;;;;;22.73;13.03;;;;;;;;;;5053013;28;20424;-79
2024/02/18 10:22:54;;;;;;;22.30;13.53;;;;;;;;;;5052522;28;20496;-79
2024/02/18 10:25:20;;;;;;;20.70;13.83;;;;;;;;;;5052592;28;20735;-78
2024/02/18 10:27:46;;;;;;;17.70;10.87;;;;;;;;;;5052821;28;20514;-78
2024/02/18 10:30:12;;;;;;;24.17;13.73;;;;;;;;;;5052651;28;20467;-79
2024/02/18 10:32:39;;;;;;;21.47;13.43;;;;;;;;;;5052216;28;20494;-80
2024/02/18 10:35:05;;;;;;;19.87;12.50;;;;;;;;;;5052375;28;20463;-78
2024/02/18 10:37:53;;;;;;;24.60;14.83;;;;;;;;;;5051675;28;20425;-78
2024/02/18 10:40:27;;;;;;;16.63;9.70;;;;;;;;;;5034482;28;20574;-78
2024/02/18 10:42:55;;;;;;;21.70;12.40;;;;;;;;;;5051647;28;20429;-82
2024/02/18 10:45:21;;;;;;;19.73;11.70;;;;;;;;;;5052463;28;20419;-79
2024/02/18 10:47:50;;;;;;;21.33;12.40;;;;;;;;;;5052396;28;20439;-80
2024/02/18 10:50:17;;;;;;;18.60;11.00;;;;;;;;;;5052130;28;20471;-81
2024/02/18 10:52:46;;;;;;;19.43;12.20;;;;;;;;;;5052414;28;20459;-79
2024/02/18 10:55:21;;;;;;;17.43;10.70;;;;;;;;;;5051861;28;20424;-79
2024/02/18 10:57:51;;;;;;;19.57;11.13;;;;;;;;;;5052024;28;20774;-81
2024/02/18 11:00:17;;;;;;;18.20;11.27;;;;;;;;;;5051951;28;20424;-81
2024/02/18 11:02:43;;;;;;;20.33;12.23;;;;;;;;;;5052107;28;20432;-81
2024/02/18 11:05:09;;;;;;;17.00;9.67;;;;;;;;;;5052143;28;20451;-79
2024/02/18 11:07:36;;;;;;;14.70;9.03;;;;;;;;;;5051795;28;20517;-80
2024/02/18 11:10:02;;;;;;;24.10;10.87;;;;;;;;;;5051732;28;20525;-80
2024/02/18 11:12:30;;;;;;;16.57;10.20;;;;;;;;;;5052359;28;20562;-78
2024/02/18 11:14:56;;;;;;;16.30;9.47;;;;;;;;;;5052016;28;20429;-79
2024/02/18 11:17:23;;;;;;;15.93;9.20;;;;;;;;;;5052268;28;20404;-79
2024/02/18 11:19:49;;;;;;;13.47;9.30;;;;;;;;;;5052138;28;20432;-78
2024/02/18 11:22:15;;;;;;;16.33;8.50;;;;;;;;;;5034115;28;20417;-82
2024/02/18 11:24:42;;;;;;;15.77;7.70;;;;;;;;;;5051675;28;20821;-79
2024/02/18 11:27:08;;;;;;;14.63;8.37;;;;;;;;;;5051871;28;20900;-78
2024/02/18 11:29:44;;;;;;;12.33;8.10;;;;;;;;;;5052058;28;20463;-79
2024/02/18 11:32:10;;;;;;;12.67;8.13;;;;;;;;;;5051888;28;20408;-80
2024/02/18 11:34:36;;;;;;;15.00;8.40;;;;;;;;;;5051741;28;20459;-79
2024/02/18 11:37:05;;;;;;;12.00;8.17;;;;;;;;;;5051960;28;20791;-79
2024/02/18 11:39:31;;;;;;;13.97;7.73;;;;;;;;;;5051608;28;20419;-79
2024/02/18 11:41:57;;;;;;;12.07;8.00;;;;;;;;;;5034136;28;20420;-82
2024/02/18 11:44:23;;;;;;;11.43;7.70;;;;;;;;;;5051852;28;20447;-81
2024/02/18 11:46:50;;;;;;;12.30;7.50;;;;;;;;;;5033988;28;20952;-79
2024/02/18 11:49:16;;;;;;;11.90;6.20;;;;;;;;;;5051834;28;20496;-79
2024/02/18 11:51:42;;;;;;;11.23;6.17;;;;;;;;;;5051671;28;20406;-79
2024/02/18 11:54:08;;;;;;;14.93;7.83;;;;;;;;;;5051433;28;20413;-79
2024/02/18 11:56:34;;;;;;;9.97;5.90;;;;;;;;;;5051621;28;20491;-79
2024/02/18 11:59:00;;;;;;;10.57;6.07;;;;;;;;;;5050985;28;20423;-81
2024/02/18 12:01:26;;;;;;;12.57;6.10;;;;;;;;;;5033590;28;20417;-80
2024/02/18 12:03:54;;;;;;;10.20;5.90;;;;;;;;;;5051611;28;20500;-78
2024/02/18 12:06:25;;;;;;;8.33;6.10;;;;;;;;;;5051412;28;20413;-79
2024/02/18 12:08:51;;;;;;;7.33;5.40;;;;;;;;;;5051041;28;20416;-81
2024/02/18 12:11:17;;;;;;;10.10;5.70;;;;;;;;;;5033868;28;20419;-79
2024/02/18 12:13:44;;;;;;;9.40;4.50;;;;;;;;;;5054537;28;20738;-79
2024/02/18 12:16:13;;;;;;;10.67;4.80;;;;;;;;;;5054485;28;20970;-79
2024/02/18 12:18:38;;;;;;;14.20;7.00;;;;;;;;;;5054834;28;20808;-78
2024/02/18 12:21:04;;;;;;;10.27;5.40;;;;;;;;;;5054952;28;20474;-83
2024/02/18 12:23:31;;;;;;;8.90;6.60;;;;;;;;;;5054607;28;20485;-81
2024/02/18 12:25:57;;;;;;;8.40;4.93;;;;;;;;;;5054786;28;20422;-77
2024/02/18 12:28:23;;;;;;;6.97;4.90;;;;;;;;;;5054994;28;20422;-78
2024/02/18 12:30:50;;;;;;;7.93;4.80;;;;;;;;;;5053569;28;20986;-78
2024/02/18 12:33:16;;;;;;;9.33;6.10;;;;;;;;;;5031559;28;20404;-79
2024/02/18 12:35:42;;;;;;;9.90;5.80;;;;;;;;;;5046435;28;20476;-78
2024/02/18 12:38:09;;;;;;;8.23;5.30;;;;;;;;;;5041778;28;20421;-80
2024/02/18 12:40:36;;;;;;;8.33;5.03;;;;;;;;;;5043164;28;20418;-78
2024/02/18 12:43:03;;;;;;;8.57;6.03;;;;;;;;;;5044076;28;20408;-78
2024/02/18 12:45:29;;;;;;;8.57;4.90;;;;;;;;;;5043763;28;20434;-79
2024/02/18 12:47:56;;;;;;;8.53;5.67;;;;;;;;;;5045585;28;20416;-80
2024/02/18 12:50:26;;;;;;;7.90;5.30;;;;;;;;;;5044926;28;20517;-80
2024/02/18 12:52:52;;;;;;;12.70;6.43;;;;;;;;;;5052518;28;20409;-78
2024/02/18 12:55:18;;;;;;;8.37;5.50;;;;;;;;;;5053472;28;20456;-79
2024/02/18 12:57:44;;;;;;;7.37;4.57;;;;;;;;;;5054301;28;20764;-78
2024/02/18 13:00:11;;;;;;;10.47;5.50;;;;;;;;;;5052117;28;20457;-79
2024/02/18 13:02:37;;;;;;;8.77;4.80;;;;;;;;;;5053396;28;20413;-79
2024/02/18 13:05:03;;;;;;;7.40;4.93;;;;;;;;;;5054534;28;20411;-79
2024/02/18 13:07:30;;;;;;;9.33;6.43;;;;;;;;;;5054160;28;20434;-78
2024/02/18 13:09:56;;;;;;;6.63;4.07;;;;;;;;;;5050682;28;20461;-79
2024/02/18 13:12:23;;;;;;;9.27;4.70;;;;;;;;;;5042040;28;20435;-78
2024/02/18 13:14:51;;;;;;;7.53;4.33;;;;;;;;;;5044437;28;20442;-78
2024/02/18 13:17:17;;;;;;;8.80;4.70;;;;;;;;;;5032786;28;20429;-79
2024/02/18 13:19:45;;;;;;;9.50;5.83;;;;;;;;;;5033822;28;20440;-79
2024/02/18 13:22:12;;;;;;;11.10;5.70;;;;;;;;;;5040115;28;20424;-82
2024/02/18 13:24:38;;;;;;;10.00;6.47;;;;;;;;;;5053631;28;20466;-79
2024/02/18 13:27:04;;;;;;;7.60;5.27;;;;;;;;;;5054121;28;20429;-80
2024/02/18 13:29:30;;;;;;;8.30;4.83;;;;;;;;;;5054178;28;20461;-79
2024/02/18 13:31:56;;;;;;;7.33;5.00;;;;;;;;;;5053848;28;20488;-77
2024/02/18 13:34:27;;;;;;;14.90;5.83;;;;;;;;;;5053649;28;20484;-85
2024/02/18 13:36:58;;;;;;;12.73;6.33;;;;;;;;;;5036365;28;20446;-85
2024/02/18 13:39:24;;;;;;;8.30;5.30;;;;;;;;;;5036202;28;20417;-86
2024/02/18 13:41:50;;;;;;;8.13;5.13;;;;;;;;;;5036158;28;20803;-78
2024/02/18 13:44:16;;;;;;;8.90;5.73;;;;;;;;;;5035208;28;20473;-84
2024/02/18 13:46:43;;;;;;;9.73;5.50;;;;;;;;;;5052694;28;20445;-84
2024/02/18 13:49:09;;;;;;;9.33;6.17;;;;;;;;;;5053083;28;20429;-83
2024/02/18 13:51:37;;;;;;;9.30;5.33;;;;;;;;;;5051672;28;20443;-81
2024/02/18 13:54:04;;;;;;;11.00;6.93;;;;;;;;;;5052306;28;20449;-81
2024/02/18 13:56:38;;;;;;;9.17;6.10;;;;;;;;;;5053494;28;20943;-80
2024/02/18 13:59:06;;;;;;;9.80;6.00;;;;;;;;;;5053600;28;20405;-84
2024/02/18 14:01:37;;;;;;;9.70;5.70;;;;;;;;;;5052607;28;20422;-78
2024/02/18 14:04:03;;;;;;;12.83;7.50;;;;;;;;;;5052899;28;20405;-84
2024/02/18 14:06:30;;;;;;;12.00;5.30;;;;;;;;;;5053031;28;20423;-80
2024/02/18 14:08:57;;;;;;;10.87;7.33;;;;;;;;;;5052833;28;20802;-77
2024/02/18 14:11:22;;;;;;;13.50;8.03;;;;;;;;;;5046890;28;20432;-77
2024/02/18 14:13:48;;;;;;;11.70;8.13;;;;;;;;;;5041737;28;20468;-77
2024/02/18 14:16:14;;;;;;;11.63;8.27;;;;;;;;;;5042463;28;20412;-77
2024/02/18 14:18:40;;;;;;;12.43;6.83;;;;;;;;;;5043233;28;20448;-79
2024/02/18 14:21:06;;;;;;;12.70;7.50;;;;;;;;;;5041312;28;20456;-77
2024/02/18 14:23:32;;;;;;;11.80;7.70;;;;;;;;;;5042286;28;20722;-77
2024/02/18 14:25:58;;;;;;;11.30;8.13;;;;;;;;;;5042839;28;20870;-79